createdAt,value
2023-01-23T00:29:07.518Z,103353.03
2023-01-23T00:34:29.357Z,103368.78
2023-01-23T00:39:51.119Z,103369.34
2023-01-23T00:45:12.958Z,103368.66
2023-01-23T00:50:34.640Z,103366.28
2023-01-23T00:55:56.330Z,103360.25
2023-01-23T01:01:18.223Z,103365.25
2023-01-23T01:06:39.924Z,103360.94
2023-01-23T01:12:01.631Z,103362.34
2023-01-23T01:17:23.600Z,103359.78
2023-01-23T01:22:45.294Z,103358.25
2023-01-23T01:28:08.126Z,103365.00
2023-01-23T01:33:29.881Z,103361.56
2023-01-23T01:38:51.738Z,103352.59
2023-01-23T01:44:19.635Z,103359.16
2023-01-23T01:49:41.426Z,103361.25
2023-01-23T01:55:05.307Z,103360.56
2023-01-23T02:00:27.011Z,103359.88
2023-01-23T02:05:50.138Z,103366.47
2023-01-23T02:11:12.122Z,103363.03
2023-01-23T02:16:41.337Z,103374.28
2023-01-23T02:22:24.279Z,103370.66
2023-01-23T02:27:45.987Z,103370.19
2023-01-23T02:33:27.850Z,103378.66
2023-01-23T02:39:13.488Z,103360.31
2023-01-23T02:44:35.342Z,103364.50
2023-01-23T02:49:57.074Z,103360.16
2023-01-23T02:55:18.877Z,103363.13
2023-01-23T03:00:43.563Z,103366.94
2023-01-23T03:06:06.165Z,103352.41
2023-01-23T03:11:27.916Z,103355.38
2023-01-23T03:16:54.133Z,103371.13
2023-01-23T03:22:16.014Z,103371.50
2023-01-23T03:27:37.734Z,103369.94
2023-01-23T03:32:59.415Z,103368.41
2023-01-23T03:38:21.156Z,103367.72
2023-01-23T03:43:42.901Z,103370.84
2023-01-23T03:49:04.629Z,103368.44
2023-01-23T03:54:27.141Z,103384.38
2023-01-23T03:59:49.045Z,103377.09
2023-01-23T04:05:10.800Z,103371.56
2023-01-23T04:10:32.978Z,103369.00
2023-01-23T04:15:54.826Z,103372.81
2023-01-23T04:21:16.641Z,103381.25
2023-01-23T04:26:38.410Z,103379.53
2023-01-23T04:32:00.187Z,103376.97
2023-01-23T04:37:21.911Z,103374.38
2023-01-23T04:42:43.581Z,103380.09
2023-01-23T04:48:05.534Z,103380.28
2023-01-23T04:53:27.218Z,103389.63
2023-01-23T04:58:50.021Z,103402.72
2023-01-23T05:04:11.891Z,103401.34
2023-01-23T05:09:33.611Z,103409.00
2023-01-23T05:14:55.312Z,103411.06
2023-01-23T05:20:17.497Z,103418.69
2023-01-23T05:25:39.466Z,103419.72
2023-01-23T05:31:01.297Z,103426.97
2023-01-23T05:36:23.135Z,103436.31
2023-01-23T05:41:44.979Z,103429.06
2023-01-23T05:47:06.638Z,103430.28
2023-01-23T05:52:28.462Z,103429.41
2023-01-23T05:57:50.223Z,103434.09
2023-01-23T06:03:11.907Z,103435.97
2023-01-23T06:08:33.669Z,103435.13
2023-01-23T06:13:55.664Z,103432.53
2023-01-23T06:19:17.373Z,103425.28
2023-01-23T06:24:39.273Z,103431.16
2023-01-23T06:30:01.015Z,103445.00
2023-01-23T06:35:23.112Z,103437.03
2023-01-23T06:40:45.217Z,103444.50
2023-01-23T06:46:11.025Z,103447.25
2023-01-23T06:51:33.428Z,103458.47
2023-01-23T06:56:55.140Z,103460.41
2023-01-23T07:02:16.942Z,103473.19
2023-01-23T07:07:38.697Z,103472.31
2023-01-23T07:13:00.396Z,103469.72
2023-01-23T07:18:23.249Z,103479.75
2023-01-23T07:23:44.936Z,103484.59
2023-01-23T07:29:09.020Z,103491.34
2023-01-23T07:34:30.755Z,103500.69
2023-01-23T07:39:52.623Z,103502.75
2023-01-23T07:45:14.756Z,103509.16
2023-01-23T07:50:38.208Z,103502.06
2023-01-23T07:56:00.221Z,103502.25
2023-01-23T08:01:22.047Z,103528.34
2023-01-23T08:06:43.897Z,103523.88
2023-01-23T08:12:05.875Z,103522.13
2023-01-23T08:17:27.608Z,103521.63
2023-01-23T08:22:49.332Z,103530.94
2023-01-23T08:28:11.064Z,103516.41
2023-01-23T08:33:34.449Z,103528.34
2023-01-23T08:38:56.317Z,103534.91
2023-01-23T08:44:18.073Z,103531.63
2023-01-23T08:49:39.786Z,103546.16
2023-01-23T08:55:01.543Z,103544.25
2023-01-23T09:00:23.432Z,103551.50
2023-01-23T09:05:45.107Z,103552.56
2023-01-23T09:11:08.670Z,103542.16
2023-01-23T09:16:30.411Z,103552.84
2023-01-23T09:21:57.091Z,103542.25
2023-01-23T09:27:19.525Z,103558.38
2023-01-23T09:32:41.261Z,103558.03
2023-01-23T09:38:07.233Z,103555.09
2023-01-23T09:43:42.605Z,103555.66
2023-01-23T09:49:27.166Z,103564.81
2023-01-23T09:54:53.387Z,103563.63
2023-01-23T10:00:24.306Z,103582.66
2023-01-23T10:06:07.407Z,103586.13
2023-01-23T10:11:37.853Z,103581.44
2023-01-23T10:17:24.265Z,103580.91
2023-01-23T10:23:05.938Z,103574.31
2023-01-23T10:28:39.526Z,103585.75
2023-01-23T10:34:10.863Z,103574.34
2023-01-23T10:39:56.064Z,103568.47
2023-01-23T10:45:21.394Z,103574.50
2023-01-23T10:50:43.367Z,103573.81
2023-01-23T10:56:05.354Z,103562.22
2023-01-23T11:01:31.657Z,103567.09
2023-01-23T11:07:05.135Z,103546.00
2023-01-23T11:12:29.438Z,103548.38
2023-01-23T11:17:53.491Z,103544.94
2023-01-23T11:23:18.140Z,103551.69
2023-01-23T11:28:51.180Z,103543.38
2023-01-23T11:34:14.970Z,103542.50
2023-01-23T11:39:49.994Z,103547.00
2023-01-23T11:45:31.197Z,103561.69
2023-01-23T11:51:13.113Z,103557.06
2023-01-23T11:56:53.404Z,103558.75
2023-01-23T12:02:46.630Z,103560.47
2023-01-23T12:08:57.295Z,103567.03
2023-01-23T12:14:34.195Z,103568.44
2023-01-23T12:20:24.957Z,103565.69
2023-01-23T12:26:07.112Z,103557.91
2023-01-23T12:31:51.723Z,103549.44
2023-01-23T12:37:35.561Z,103558.44
2023-01-23T12:43:04.227Z,103556.38
2023-01-23T12:48:58.725Z,103546.16
2023-01-23T12:54:31.631Z,103552.34
2023-01-23T13:00:01.872Z,103547.53
2023-01-23T13:05:40.237Z,103539.75
2023-01-23T13:11:26.738Z,103547.88
2023-01-23T13:16:50.502Z,103540.44
2023-01-23T13:22:29.317Z,103548.25
2023-01-23T13:28:01.022Z,103543.22
2023-01-23T13:33:28.965Z,103533.72
2023-01-23T13:39:00.608Z,103549.59
2023-01-23T13:44:35.802Z,103556.50
2023-01-23T14:24:47.737Z,103559.44
2023-01-23T14:30:18.632Z,103562.56
2023-01-23T14:35:42.834Z,103566.19
2023-01-23T14:41:07.424Z,103552.91
2023-01-23T14:46:40.396Z,103555.47
2023-01-23T14:52:04.777Z,103540.78
2023-01-23T14:57:27.838Z,103526.25
2023-01-23T15:02:54.596Z,103511.22
2023-01-23T15:08:33.211Z,103502.56
2023-01-23T15:14:01.690Z,103495.09
2023-01-23T15:19:25.283Z,103492.88
2023-01-23T15:24:47.761Z,103498.25
2023-01-23T15:30:28.943Z,103507.91
2023-01-23T15:35:50.931Z,103507.78
2023-01-23T15:41:12.654Z,103514.84
2023-01-23T15:46:34.399Z,103527.47
2023-01-23T15:51:58.878Z,103527.13
2023-01-23T15:57:20.969Z,103526.78
2023-01-23T16:02:55.181Z,103544.94
2023-01-23T16:08:23.262Z,103552.00
2023-01-23T16:13:45.202Z,103553.03
2023-01-23T16:19:06.912Z,103563.38
2023-01-23T16:24:30.172Z,103564.94
2023-01-23T16:29:51.898Z,103568.88
2023-01-23T16:35:15.047Z,103556.78
2023-01-23T16:40:36.785Z,103550.41
2023-01-23T16:45:58.668Z,103554.91
2023-01-23T16:51:24.975Z,103546.63
2023-01-23T16:56:51.025Z,103547.81
2023-01-23T17:02:31.232Z,103559.56
2023-01-23T17:07:53.191Z,103567.28
2023-01-23T17:13:17.023Z,103567.00
2023-01-23T17:18:39.116Z,103573.38
2023-01-23T17:24:01.071Z,103567.00
2023-01-23T17:29:23.184Z,103574.41
2023-01-23T17:34:50.330Z,103577.16
2023-01-23T17:40:14.711Z,103589.16
2023-01-23T17:45:36.538Z,103582.81
2023-01-23T17:50:59.336Z,103589.91
2023-01-23T17:56:21.189Z,103592.91
2023-01-23T18:01:43.194Z,103579.47
2023-01-23T18:07:04.986Z,103587.34
2023-01-23T18:12:46.896Z,103584.56
2023-01-23T18:18:34.337Z,103584.78
2023-01-23T18:23:56.535Z,103592.75
2023-01-23T18:29:33.703Z,103606.56
2023-01-23T18:35:14.125Z,103603.09
2023-01-23T18:41:09.387Z,103602.94
2023-01-23T18:46:31.354Z,103603.28
2023-01-23T18:52:19.624Z,103607.31
2023-01-23T18:58:03.660Z,103623.19
2023-01-23T19:03:38.944Z,103612.56
2023-01-23T19:09:00.879Z,103620.63
2023-01-23T19:14:51.422Z,103617.25
2023-01-23T19:20:36.335Z,103607.38
2023-01-23T19:25:58.331Z,103613.56
2023-01-23T19:31:23.894Z,103613.38
2023-01-23T19:36:45.909Z,103617.63
2023-01-23T19:42:14.192Z,103615.06
2023-01-23T19:47:35.911Z,103620.38
2023-01-23T19:52:58.814Z,103622.03
2023-01-23T19:58:20.478Z,103610.69
2023-01-23T20:03:42.187Z,103614.00
2023-01-23T20:09:03.854Z,103620.72
2023-01-23T20:14:25.942Z,103618.75
2023-01-23T20:19:48.246Z,103616.41
2023-01-23T20:25:15.541Z,103623.13
2023-01-23T20:30:37.508Z,103618.94
2023-01-23T20:35:59.922Z,103620.25
2023-01-23T20:41:22.157Z,103618.72
2023-01-23T20:46:44.033Z,103619.78
2023-01-23T20:52:24.531Z,103620.78
2023-01-23T20:58:05.066Z,103632.38
2023-01-23T21:03:26.745Z,103635.06
2023-01-23T21:08:48.469Z,103635.03
2023-01-23T21:14:10.211Z,103632.38
2023-01-23T21:19:33.074Z,103628.38
2023-01-23T21:24:54.817Z,103644.56
2023-01-23T21:30:17.102Z,103643.13
2023-01-23T21:35:39.089Z,103635.31
2023-01-23T21:41:00.921Z,103636.88
2023-01-23T21:46:23.062Z,103622.59
2023-01-23T21:51:45.298Z,103634.59
2023-01-23T21:57:07.067Z,103634.59
2023-01-23T22:02:28.787Z,103636.31
2023-01-23T22:07:50.766Z,103633.31
2023-01-23T22:13:12.465Z,103630.13
2023-01-23T22:18:34.232Z,103638.06
2023-01-23T22:23:56.074Z,103635.56
2023-01-23T22:29:18.105Z,103635.13
2023-01-23T22:34:39.782Z,103627.25
2023-01-23T22:40:01.477Z,103634.97
2023-01-23T22:45:23.879Z,103635.41
2023-01-23T22:50:46.095Z,103635.59
2023-01-23T22:56:08.504Z,103635.69
2023-01-23T23:01:30.403Z,103644.91
2023-01-23T23:06:52.159Z,103656.06
2023-01-23T23:12:13.888Z,103653.31
2023-01-23T23:17:35.640Z,103667.91
2023-01-23T23:22:57.783Z,103669.66
2023-01-23T23:28:19.603Z,103661.41
2023-01-23T23:33:41.338Z,103660.41
2023-01-23T23:39:03.071Z,103671.16
2023-01-23T23:44:24.806Z,103663.56
2023-01-23T23:49:46.534Z,103655.75
2023-01-23T23:55:08.679Z,103653.88
